Terminal Aerodrome Forecast
Issued by NWS St Louis, MO

Home | Current Version | Previous Version | Text Only | Print | Product List | Glossary On
Versions: 1 2 3 4 5 6 7 8 9 10 11 12 13 14 15 16 17 18 19 20 21 22 23 24 25 26 27 28 29 30
000
FTUS43 KLSX 152340
TAFSTL
TAF
KSTL 152340Z 1600/1706 08008KT P6SM SCT250
     FM161200 13006KT 3SM BR VCSH BKN040
     FM161600 14007KT P6SM BKN040
     FM162100 18012KT P6SM VCTS SCT050CB BKN120
     FM170300 19009KT P6SM SCT060 BKN120=

USA.gov is the U.S. government's official web portal to all federal, state and local government web resources and services.